Date,TemperatureHighF,TemperatureAvgF,TemperatureLowF,DewpointHighF,DewpointAvgF,DewpointLowF,HumidityHigh,HumidityAvg,HumidityLow,PressureMaxIn,PressureMinIn,WindSpeedMaxMPH,WindSpeedAvgMPH,GustSpeedMaxMPH,PrecipitationSumIn
2013-1-1,50,43,40,40,36,33,81,76,66,30.07,30.00,0,0,0,0.01
2013-1-2,52,43,36,39,35,31,81,75,58,30.04,29.93,0,0,0,0.00
2013-1-3,52,43,37,41,36,32,81,77,64,30.06,29.95,0,0,0,0.00
2013-1-4,54,46,40,42,38,34,81,74,57,30.09,29.97,0,0,0,0.00
2013-1-5,54,48,42,47,41,36,81,76,61,30.05,29.86,0,0,0,0.08
2013-1-6,49,46,43,43,30,14,80,56,29,29.99,29.84,0,0,0,0.11
2013-1-7,56,48,42,49,36,21,79,64,40,30.05,29.96,0,0,0,0.01
2013-1-8,57,50,45,50,38,22,80,66,34,30.04,29.93,0,0,0,0.01
2013-1-9,54,47,43,48,36,24,81,67,43,29.95,29.81,0,0,0,0.06
2013-1-10,48,43,40,39,36,34,81,76,65,29.99,29.87,0,0,0,0.02
2013-1-11,51,44,38,41,37,32,81,76,63,30.05,29.92,0,0,0,0.00
2013-1-12,47,41,37,36,32,24,81,70,45,30.05,29.93,0,0,0,0.00
2013-1-13,47,39,33,31,28,21,80,66,41,30.06,29.97,0,0,0,0.00
2013-1-14,47,39,34,30,23,18,69,53,35,30.20,30.02,0,0,0,0.00
2013-1-15,51,42,36,34,30,28,75,63,42,30.27,30.18,0,0,0,0.00
2013-1-16,53,43,36,35,32,29,77,67,49,30.22,30.04,0,0,0,0.00
2013-1-17,58,47,39,41,36,32,75,66,50,30.05,29.95,0,0,0,0.00
2013-1-18,60,50,42,42,38,34,73,64,47,30.03,29.93,0,0,0,0.00
2013-1-19,60,50,43,41,37,32,68,61,46,30.05,29.96,0,0,0,0.00
2013-1-20,61,50,42,41,37,34,76,62,43,30.03,29.93,0,0,0,0.00
2013-1-21,60,50,42,42,38,33,73,64,47,29.98,29.89,0,0,0,0.00
2013-1-22,60,51,44,45,40,36,75,67,51,29.90,29.80,0,0,0,0.00
2013-1-23,57,52,50,48,43,36,78,71,57,29.89,29.75,0,0,0,0.14
2013-1-24,57,53,50,50,41,31,79,63,45,29.99,29.86,0,0,0,0.02
2013-1-25,61,56,53,54,44,28,79,64,35,29.99,29.85,0,0,0,0.02
2013-1-26,55,51,46,46,42,34,80,72,52,29.89,29.81,0,0,0,0.00
2013-1-27,52,47,43,40,39,35,81,74,53,29.97,29.87,0,0,0,0.00
2013-1-28,54,48,43,44,40,37,80,76,64,30.10,29.96,0,0,0,0.00
2013-1-29,56,49,44,46,41,38,80,75,66,30.17,30.07,0,0,0,0.00
2013-1-30,64,53,47,47,43,40,80,68,48,30.15,30.06,0,0,0,0.00
2013-1-31,61,51,44,48,43,37,79,73,59,30.09,29.98,0,0,0,0.00
2013-2-1,63,53,46,49,45,39,80,73,57,30.02,29.92,0,0,0,0.00
2013-2-2,56,50,47,50,43,36,80,75,63,30.09,30.01,0,0,0,0.00
2013-2-3,56,49,45,47,42,38,80,77,70,30.05,29.95,0,0,0,0.00
2013-2-4,54,48,43,48,36,24,79,66,41,29.98,29.87,0,0,0,0.00
2013-2-5,54,49,46,47,42,34,80,76,61,29.95,29.88,0,0,0,0.00
2013-2-6,56,48,42,46,40,34,80,75,64,29.99,29.92,0,0,0,0.00
2013-2-7,54,46,40,46,39,32,81,76,63,29.97,29.79,0,0,0,0.05
2013-2-8,50,44,40,41,35,26,80,68,50,29.82,29.73,0,0,0,0.13
2013-2-9,54,47,42,36,32,29,67,57,39,29.89,29.79,0,0,0,0.00
2013-2-10,57,47,39,39,35,30,76,63,45,29.92,29.82,0,0,0,0.00
2013-2-11,59,50,43,36,33,28,71,53,32,30.03,29.86,0,0,0,0.00
2013-2-12,58,48,41,45,39,34,79,70,48,30.16,30.03,0,0,0,0.00
2013-2-13,61,50,42,47,40,36,79,70,50,30.14,30.01,0,0,0,0.00
2013-2-14,66,54,44,45,42,37,79,63,45,30.05,29.96,0,0,0,0.00
2013-2-15,68,57,49,46,43,38,70,59,43,30.07,30.00,0,0,0,0.00
2013-2-16,66,56,48,50,45,39,78,67,52,30.03,29.86,0,0,0,0.00
2013-2-17,61,50,43,47,42,35,78,71,57,29.87,29.77,0,0,0,0.00
2013-2-18,53,47,41,43,39,34,79,75,64,29.85,29.78,0,0,0,0.00
2013-2-19,47,43,39,41,37,31,81,77,63,29.78,29.56,0,0,0,0.39
2013-2-20,56,45,37,42,37,30,80,73,48,29.87,29.64,0,0,0,0.00
2013-2-21,56,48,42,40,36,32,80,66,45,29.97,29.85,0,0,0,0.00
2013-2-22,60,49,41,44,38,32,79,66,46,30.06,29.96,0,0,0,0.00
2013-2-23,55,49,45,42,39,34,80,68,50,30.06,29.97,0,0,0,0.01
2013-2-24,59,50,43,35,30,26,64,47,30,30.06,29.97,0,0,0,0.00
2013-2-25,59,49,41,46,40,33,79,70,55,30.07,29.97,0,0,0,0.00
2013-2-26,63,51,42,38,34,26,80,54,25,30.02,29.94,0,0,0,0.00
2013-2-27,65,54,43,46,39,30,72,58,35,30.17,30.00,0,0,0,0.00
2013-2-28,65,54,46,53,46,40,78,74,60,30.26,30.16,0,0,0,0.00
2013-3-1,69,57,48,54,45,30,78,66,45,30.23,30.05,0,0,0,0.00
2013-3-2,68,58,52,55,49,45,79,72,61,30.05,29.88,0,0,0,0.00
2013-3-3,62,54,46,49,45,39,79,73,57,29.91,29.85,0,0,0,0.00
2013-3-4,56,48,43,47,41,36,79,75,71,29.95,29.86,0,0,0,0.00
2013-3-5,58,48,40,46,40,34,80,73,63,29.87,29.64,0,0,0,0.25
2013-3-6,56,50,43,45,40,31,80,71,50,29.88,29.66,0,0,0,0.39
2013-3-7,56,48,42,44,40,33,80,74,59,29.80,29.65,0,0,0,0.22
2013-3-8,56,49,44,46,40,32,80,72,57,29.87,29.63,0,0,0,0.02
2013-3-9,64,52,44,44,40,37,80,64,39,30.11,29.87,0,0,0,0.00
2013-3-10,67,54,44,47,39,34,78,59,30,30.15,30.05,0,0,0,0.00
2013-3-11,70,55,45,51,42,37,79,64,41,30.06,29.91,0,0,0,0.00
2013-3-12,70,56,48,54,47,38,79,70,53,29.96,29.88,0,0,0,0.00
2013-3-13,74,60,48,56,49,39,78,69,44,29.96,29.87,0,0,0,0.23
2013-3-14,70,58,50,56,46,39,79,66,40,29.97,29.89,0,0,0,0.00
2013-3-15,70,57,48,52,45,38,75,66,48,29.94,29.86,0,0,0,0.00
2013-3-16,70,56,46,55,43,33,78,63,34,29.92,29.85,0,0,0,0.00
2013-3-17,66,55,47,47,42,38,77,63,44,29.95,29.86,0,0,0,0.00
2013-3-18,64,54,45,51,44,39,78,70,52,29.94,29.85,0,0,0,0.00
2013-3-19,67,55,48,52,44,34,78,67,41,29.94,29.86,0,0,0,0.00
2013-3-20,64,56,50,55,47,40,78,72,66,29.95,29.87,0,0,0,0.00
2013-3-21,61,52,44,46,42,37,80,69,50,29.95,29.82,0,0,0,0.00
2013-3-22,65,54,45,40,35,26,77,53,25,29.92,29.84,0,0,0,0.00
2013-3-23,66,55,46,41,35,27,68,50,26,29.95,29.85,0,0,0,0.00
2013-3-24,68,55,46,50,43,39,79,66,46,29.90,29.78,0,0,0,0.00
2013-3-25,62,51,45,49,43,38,78,72,61,29.83,29.75,0,0,0,0.00
2013-3-26,65,54,46,50,44,39,78,70,55,29.82,29.74,0,0,0,0.04
2013-3-27,67,56,49,54,48,42,78,74,63,29.82,29.75,0,0,0,0.00
2013-3-28,66,58,54,57,49,37,78,71,52,29.89,29.81,0,0,0,0.00
2013-3-29,75,61,51,57,48,32,78,63,47,29.90,29.81,0,0,0,0.00
2013-3-30,68,59,54,56,50,43,78,72,56,29.87,29.77,0,0,0,0.08
2013-3-31,67,58,52,55,48,37,78,69,54,29.87,29.80,0,0,0,0.12
2013-4-1,65,56,51,55,43,31,78,64,40,29.96,29.85,0,0,0,0.21
2013-4-2,66,56,48,56,47,36,79,72,60,29.99,29.89,0,0,0,0.00
2013-4-3,73,58,49,56,46,30,78,65,47,29.95,29.79,0,0,0,0.00
2013-4-4,66,58,53,57,47,30,78,68,34,29.93,29.80,0,0,0,0.41
2013-4-5,64,58,53,54,49,42,78,73,60,30.00,29.92,0,0,0,0.01
2013-4-6,63,57,52,55,49,43,78,74,68,30.01,29.94,0,0,0,0.00
2013-4-7,65,56,51,56,48,39,78,74,60,29.99,29.67,0,0,0,0.04
2013-4-8,62,53,46,44,40,36,80,64,43,29.83,29.63,0,0,0,0.00
2013-4-9,71,61,52,43,39,34,63,45,31,29.90,29.82,0,0,0,0.00
2013-4-10,82,68,57,53,46,39,61,46,32,30.00,29.86,0,0,0,0.00
2013-4-11,70,59,50,51,45,40,76,60,39,29.90,29.67,0,0,0,0.00
2013-4-12,73,57,46,54,45,40,78,65,45,29.73,29.65,0,0,0,0.00
2013-4-13,67,55,48,52,43,38,78,65,46,29.72,29.66,0,0,0,0.00
2013-4-14,66,53,45,44,40,37,78,63,37,29.74,29.68,0,0,0,0.00
2013-4-15,55,49,44,44,39,35,79,68,51,29.77,29.67,0,0,0,0.00
2013-4-16,63,52,41,38,35,31,78,55,30,29.95,29.76,0,0,0,0.00
2013-4-17,66,58,52,36,34,28,53,41,27,30.07,29.95,0,0,0,0.00
2013-4-18,74,61,50,40,36,32,61,41,25,30.08,29.99,0,0,0,0.00
2013-4-19,78,63,51,56,47,37,78,57,33,30.03,29.89,0,0,0,0.00
2013-4-20,77,64,53,48,44,39,72,51,30,29.92,29.80,0,0,0,0.00
2013-4-21,83,66,51,54,45,40,77,50,22,29.86,29.75,0,0,0,0.00
2013-4-22,85,71,58,48,44,40,59,40,22,29.79,29.67,0,0,0,0.00
2013-4-23,79,66,54,47,40,28,67,42,18,29.77,29.68,0,0,0,0.00
2013-4-24,71,58,49,53,47,42,78,67,52,29.76,29.64,0,0,0,0.00
2013-4-25,70,58,50,54,48,43,78,70,55,29.95,29.76,0,0,0,0.00
2013-4-26,69,57,48,54,47,41,78,70,57,30.03,29.94,0,0,0,0.00
2013-4-27,71,59,49,55,49,42,78,70,55,30.03,29.89,0,0,0,0.00
2013-4-28,81,64,50,59,50,39,78,63,44,29.90,29.71,0,0,0,0.00
2013-4-29,87,71,58,59,51,46,73,51,29,29.72,29.59,0,0,0,0.00
2013-4-30,80,66,53,54,45,31,75,50,25,29.68,29.61,0,0,0,0.00
2013-5-1,82,70,59,44,33,23,40,26,15,29.91,29.68,0,0,0,0.00
2013-5-2,87,69,59,39,36,30,47,32,16,29.97,29.90,0,0,0,0.00
2013-5-3,87,78,65,43,37,29,42,25,16,29.76,29.62,0,0,0,0.00
2013-5-4,83,64,55,55,44,39,69,50,26,29.63,29.43,0,0,0,0.00
2013-5-5,65,58,55,50,47,44,71,66,56,29.62,29.42,0,0,0,0.00
2013-5-6,70,61,54,54,49,46,75,65,52,29.78,29.62,0,0,0,0.01
2013-5-7,71,62,55,54,49,45,76,64,51,29.86,29.77,0,0,0,0.00
2013-5-8,66,57,51,54,48,43,77,72,60,29.97,29.85,0,0,0,0.00
2013-5-9,66,57,51,53,47,42,78,70,58,30.00,29.90,0,0,0,0.00
2013-5-10,72,59,50,57,49,42,77,70,55,30.01,29.93,0,0,0,0.00
2013-5-11,79,65,54,61,52,41,77,64,45,29.97,29.86,0,0,0,0.00
2013-5-12,80,66,54,61,52,45,77,62,34,29.96,29.86,0,0,0,0.00
2013-5-13,78,64,53,58,51,45,77,64,47,29.92,29.78,0,0,0,0.00
2013-5-14,74,62,52,56,47,41,77,60,41,29.85,29.75,0,0,0,0.00
2013-5-15,67,58,49,49,45,41,75,63,45,29.89,29.83,0,0,0,0.00
2013-5-16,68,59,54,56,50,46,77,72,56,29.86,29.79,0,0,0,0.00
2013-5-17,67,57,50,49,46,43,78,67,48,29.91,29.80,0,0,0,0.00
2013-5-18,71,60,48,51,46,41,78,63,42,29.94,29.89,0,0,0,0.00
2013-5-19,80,66,52,50,44,38,73,48,27,29.94,29.80,0,0,0,0.00
2013-5-20,87,70,56,54,42,36,61,40,18,29.83,29.75,0,0,0,0.00
2013-5-21,67,58,50,51,44,37,75,59,40,29.82,29.74,0,0,0,0.00
2013-5-22,63,53,45,41,37,28,74,57,28,29.83,29.74,0,0,0,0.00
2013-5-23,65,55,47,46,41,37,76,61,45,29.82,29.73,0,0,0,0.00
2013-5-24,66,51,46,47,41,37,77,67,50,29.81,29.77,0,0,0,0.00
2013-5-26,69,62,54,54,51,46,77,68,55,29.96,29.89,0,0,0,0.00
2013-5-27,65,59,52,55,51,43,76,73,66,29.96,29.81,0,0,0,0.01
2013-5-28,68,61,55,58,50,45,77,68,57,29.82,29.75,0,0,0,0.00
2013-5-29,68,60,54,56,50,44,76,68,56,29.79,29.74,0,0,0,0.00
2013-5-30,74,61,49,49,42,37,78,53,28,29.81,29.75,0,0,0,0.00
2013-5-31,88,68,51,54,46,39,76,49,22,29.83,29.74,0,0,0,0.00
2013-6-1,93,73,56,59,50,46,75,50,21,29.76,29.60,0,0,0,0.00
2013-6-2,81,67,56,58,52,48,76,61,43,29.62,29.50,0,0,0,0.00
2013-6-3,80,64,54,58,52,47,77,65,46,29.67,29.54,0,0,0,0.00
2013-6-4,77,64,56,58,52,48,77,67,50,29.78,29.66,0,0,0,0.00
2013-6-5,67,58,55,55,50,47,77,75,65,29.80,29.77,0,0,0,0.00
2013-6-8,86,77,62,64,59,53,73,54,44,29.62,29.53,0,0,0,0.00
2013-6-9,78,66,57,61,54,49,76,68,52,29.70,29.61,0,0,0,0.00
2013-6-10,72,63,55,56,52,48,77,67,54,29.75,29.64,0,0,0,0.00
2013-6-11,72,63,56,58,52,48,77,70,56,29.79,29.72,0,0,0,0.00
2013-6-12,77,64,53,55,46,40,77,55,29,29.83,29.72,0,0,0,0.00
2013-6-13,78,64,49,54,45,39,73,52,26,29.90,29.81,0,0,0,0.00
2013-6-14,85,70,55,54,45,40,73,46,23,29.81,29.65,0,0,0,0.00
2013-6-15,74,62,52,55,48,43,77,62,43,29.83,29.65,0,0,0,0.00
2013-6-16,76,64,52,54,50,45,76,61,44,29.91,29.82,0,0,0,0.00
2013-6-17,70,62,54,56,52,46,76,69,60,29.92,29.85,0,0,0,0.00
2013-6-18,66,60,53,52,49,46,77,69,58,29.87,29.82,0,0,0,0.00
2013-6-19,71,61,53,51,47,43,77,62,44,29.87,29.82,0,0,0,0.00
2013-6-20,78,63,51,54,46,42,74,56,30,29.83,29.77,0,0,0,0.00
2013-6-21,83,66,52,57,47,41,76,54,24,29.79,29.74,0,0,0,0.00
2013-6-22,87,68,55,60,50,45,77,56,25,29.76,29.67,0,0,0,0.00
2013-6-23,73,64,58,61,55,46,77,72,64,29.71,29.63,0,0,0,0.00
2013-6-24,68,63,60,60,53,46,76,70,56,29.72,29.61,0,0,0,0.03
2013-6-25,76,68,62,66,59,51,76,74,66,29.80,29.69,0,0,0,0.02
2013-6-26,84,71,62,66,58,47,75,65,52,29.87,29.78,0,0,0,0.00
2013-6-27,88,74,61,65,58,49,76,58,37,29.90,29.84,0,0,0,0.00
2013-6-28,98,79,63,66,57,48,74,51,24,29.86,29.73,0,0,0,0.00
2013-6-29,98,78,66,65,56,48,65,48,26,29.76,29.64,0,0,0,0.00
2013-6-30,91,76,64,63,56,50,74,52,30,29.68,29.61,0,0,0,0.00
2013-7-1,96,76,62,66,59,53,76,58,27,29.68,29.63,0,0,0,0.00
2013-7-2,89,74,64,67,60,55,75,62,45,29.74,29.64,0,0,0,0.00
2013-7-3,90,73,62,67,60,54,76,65,44,29.74,29.59,0,0,0,0.00
2013-7-4,93,76,66,67,58,45,75,56,30,29.61,29.52,0,0,0,0.00
2013-7-5,76,66,58,56,51,45,70,59,43,29.63,29.55,0,0,0,0.00
2013-7-6,81,65,54,59,52,47,77,65,45,29.62,29.55,0,0,0,0.00
2013-7-7,81,66,58,60,54,51,76,66,47,29.68,29.60,0,0,0,0.00
2013-7-8,80,66,58,60,55,50,76,67,49,29.79,29.67,0,0,0,0.00
2013-7-9,90,71,59,63,56,49,76,61,29,29.84,29.75,0,0,0,0.00
2013-7-10,84,66,56,61,54,48,76,66,45,29.80,29.71,0,0,0,0.00
2013-7-11,80,65,58,59,53,50,76,67,46,29.76,29.69,0,0,0,0.00
2013-7-12,86,67,57,59,54,49,76,65,39,29.75,29.69,0,0,0,0.00
2013-7-13,86,68,55,60,52,45,76,61,30,29.78,29.71,0,0,0,0.00
2013-7-14,77,65,56,58,53,47,76,67,51,29.81,29.72,0,0,0,0.00
2013-7-15,76,64,56,58,52,48,76,68,49,29.74,29.64,0,0,0,0.00
2013-7-16,73,62,53,57,51,44,77,70,56,29.85,29.68,0,0,0,0.00
2013-7-17,76,64,57,60,53,48,76,68,54,29.91,29.84,0,0,0,0.00
2013-7-18,83,67,56,61,54,48,76,65,43,29.88,29.76,0,0,0,0.00
2013-7-19,80,66,57,61,54,49,76,66,47,29.78,29.65,0,0,0,0.00
2013-7-20,79,66,57,60,54,50,76,67,50,29.68,29.56,0,0,0,0.00
2013-7-21,76,66,58,60,54,50,76,68,54,29.69,29.59,0,0,0,0.00
2013-7-22,77,66,57,62,56,49,76,70,58,29.78,29.69,0,0,0,0.00
2013-7-23,76,68,60,63,57,50,76,68,55,29.81,29.74,0,0,0,0.00
2013-7-24,83,70,59,64,56,46,76,64,48,29.80,29.73,0,0,0,0.00
2013-7-25,78,67,56,62,55,46,76,67,54,29.85,29.74,0,0,0,0.00
2013-7-26,76,66,59,61,56,50,76,69,58,29.91,29.82,0,0,0,0.00
2013-7-27,74,66,59,61,56,50,76,70,61,29.85,29.68,0,0,0,0.00
2013-7-28,61,60,60,53,52,51,76,73,72,29.70,29.65,0,0,0,0.00
2013-8-8,71,64,55,59,54,46,77,70,63,29.82,29.76,0,0,0,0.00
2013-8-9,75,63,53,60,52,42,76,68,54,29.82,29.74,0,0,0,0.00
2013-8-10,76,64,57,62,54,47,76,70,56,29.86,29.78,0,0,0,0.00
2013-8-11,77,65,58,61,54,45,76,67,49,29.85,29.76,0,0,0,0.00
2013-8-12,83,67,58,62,52,44,76,61,31,29.81,29.75,0,0,0,0.00
2013-8-13,85,68,56,62,52,41,76,59,34,29.80,29.73,0,0,0,0.00
2013-8-14,79,67,56,60,55,48,76,67,42,29.80,29.74,0,0,0,0.00
2013-8-15,82,70,60,66,59,44,75,67,52,29.79,29.74,0,0,0,0.00
2013-8-16,83,70,63,66,52,38,75,55,29,29.81,29.76,0,0,0,0.00
2013-8-17,80,67,59,62,56,50,76,69,52,29.81,29.70,0,0,0,0.00
2013-8-18,89,72,59,67,57,42,75,60,46,29.71,29.59,0,0,0,0.00
2013-8-19,85,74,64,65,60,56,75,63,47,29.73,29.61,0,0,0,0.00
2013-8-20,78,69,61,61,57,52,76,67,51,29.71,29.63,0,0,0,0.00
2013-8-21,75,65,59,60,55,51,76,71,58,29.75,29.66,0,0,0,0.00
2013-8-22,75,64,57,60,54,49,76,70,56,29.79,29.70,0,0,0,0.00
2013-8-23,74,63,56,60,53,48,76,69,51,29.75,29.64,0,0,0,0.00
2013-8-24,78,65,56,61,55,46,77,69,53,29.73,29.66,0,0,0,0.00
2013-8-25,80,68,60,65,56,44,76,66,49,29.77,29.70,0,0,0,0.01
2013-8-26,75,66,60,61,54,48,76,65,52,29.82,29.73,0,0,0,0.00
2013-8-27,80,66,56,61,54,45,76,65,44,29.73,29.65,0,0,0,0.00
2013-8-28,81,68,58,64,57,43,76,68,54,29.77,29.68,0,0,0,0.00
2013-8-29,81,70,62,64,59,52,76,69,48,29.87,29.77,0,0,0,0.00
2013-8-30,88,71,61,67,56,40,76,59,37,29.86,29.74,0,0,0,0.00
2013-8-31,80,69,59,62,55,50,76,63,41,29.80,29.72,0,0,0,0.00
2013-9-1,78,69,61,61,57,52,76,67,47,29.77,29.69,0,0,0,0.00
2013-9-2,76,69,63,64,59,54,76,71,59,29.78,29.70,0,0,0,0.00
2013-9-3,76,66,58,56,54,50,77,65,43,29.82,29.76,0,0,0,0.00
2013-9-4,75,66,58,58,54,46,76,68,50,29.85,29.78,0,0,0,0.00
2013-9-5,74,66,59,58,54,47,76,66,54,29.84,29.78,0,0,0,0.00
2013-9-6,87,71,57,60,52,46,76,55,30,29.81,29.65,0,0,0,0.00
2013-9-7,90,76,65,60,52,48,65,46,25,29.70,29.63,0,0,0,0.00
2013-9-8,83,69,58,64,57,50,76,67,48,29.69,29.59,0,0,0,0.00
2013-9-9,86,70,59,66,57,50,76,66,33,29.63,29.53,0,0,0,0.00
2013-9-10,80,67,60,64,56,45,76,67,52,29.71,29.56,0,0,0,0.00
2013-9-11,76,65,58,62,55,48,76,71,58,29.80,29.70,0,0,0,0.00
2013-9-12,75,65,59,63,56,49,76,72,62,29.79,29.69,0,0,0,0.00
2013-9-13,77,64,57,62,52,44,76,66,46,29.74,29.60,0,0,0,0.00
2013-9-14,70,62,55,58,51,42,77,70,55,29.65,29.57,0,0,0,0.00
2013-9-15,76,64,55,60,53,41,76,68,56,29.69,29.61,0,0,0,0.00
2013-9-16,78,65,58,63,51,37,76,62,43,29.71,29.63,0,0,0,0.00
2013-9-17,70,63,58,55,52,48,76,67,51,29.71,29.66,0,0,0,0.00
2013-9-18,80,66,55,55,49,43,77,58,29,29.73,29.64,0,0,0,0.00
2013-9-19,85,68,54,59,49,42,77,56,28,29.67,29.56,0,0,0,0.00
2013-9-20,72,64,55,61,54,45,76,71,63,29.69,29.60,0,0,0,0.00
2013-9-21,66,62,57,58,51,41,77,68,50,29.72,29.63,0,0,0,0.41
2013-9-22,70,61,54,57,49,37,76,65,51,29.82,29.71,0,0,0,0.00
2013-9-23,77,65,56,60,54,47,77,67,49,29.83,29.75,0,0,0,0.00
2013-9-24,70,64,57,55,52,48,76,64,53,29.82,29.74,0,0,0,0.00
2013-9-25,65,58,54,49,47,43,77,66,47,29.75,29.64,0,0,0,0.00
2013-9-26,71,60,53,46,42,39,73,52,32,29.79,29.64,0,0,0,0.00
2013-9-27,74,63,54,45,40,35,62,45,26,29.91,29.79,0,0,0,0.00
2013-9-28,79,65,55,54,43,36,73,48,26,29.91,29.81,0,0,0,0.00
2013-9-29,73,64,56,60,54,48,76,71,62,29.92,29.86,0,0,0,0.00
2013-9-30,73,65,58,62,54,43,76,68,50,29.90,29.79,0,0,0,0.00
2013-10-1,70,61,54,53,48,43,77,64,50,29.82,29.74,0,0,0,0.00
2013-10-2,74,61,54,55,47,41,77,62,37,29.82,29.73,0,0,0,0.00
2013-10-3,69,61,52,42,39,34,63,46,31,29.88,29.77,0,0,0,0.00
2013-10-4,76,66,57,37,35,33,45,32,22,29.92,29.79,0,0,0,0.00
2013-10-5,79,67,57,38,34,30,40,30,19,30.00,29.91,0,0,0,0.00
2013-10-6,81,67,55,48,38,32,49,35,21,29.92,29.81,0,0,0,0.00
2013-10-7,79,66,57,49,37,27,51,36,18,29.81,29.69,0,0,0,0.00
2013-10-8,73,60,52,51,45,40,75,58,40,29.71,29.53,0,0,0,0.00
2013-10-9,66,57,48,49,43,40,78,62,46,29.57,29.43,0,0,0,0.00
2013-10-10,68,59,52,51,46,40,75,63,50,29.82,29.57,0,0,0,0.00
2013-10-11,64,56,51,53,47,41,77,72,64,29.89,29.79,0,0,0,0.00
2013-10-12,68,59,49,55,46,33,77,64,49,29.80,29.72,0,0,0,0.00
2013-10-13,69,58,50,51,45,39,77,62,42,29.87,29.73,0,0,0,0.00
2013-10-14,73,61,51,45,41,38,73,50,30,29.92,29.81,0,0,0,0.00
2013-10-15,58,56,54,39,38,37,58,52,49,29.84,29.81,0,0,0,0.00
2013-10-19,75,66,56,56,51,44,75,59,42,29.88,29.80,0,0,0,0.00
2013-10-20,69,57,50,57,48,42,76,71,59,29.84,29.72,0,0,0,0.00
2013-10-21,65,55,49,55,45,34,77,68,52,29.81,29.72,0,0,0,0.00
2013-10-22,67,56,49,57,44,29,77,66,42,29.82,29.72,0,0,0,0.00
2013-10-23,63,54,50,55,40,23,77,60,33,29.78,29.70,0,0,0,0.01
2013-10-24,59,53,49,51,42,34,78,66,50,29.91,29.77,0,0,0,0.00
2013-10-25,66,55,48,55,43,26,77,65,41,29.97,29.88,0,0,0,0.00
2013-10-26,72,58,50,58,46,29,77,64,41,29.95,29.82,0,0,0,0.00
2013-10-27,60,53,48,52,44,36,77,72,58,29.83,29.51,0,0,0,0.00
2013-10-28,59,54,51,48,46,44,77,74,64,29.66,29.48,0,0,0,0.01
2013-10-29,61,54,48,49,45,42,78,72,63,29.85,29.66,0,0,0,0.00
2013-10-30,63,54,47,50,43,35,78,69,55,29.95,29.85,0,0,0,0.00
2013-10-31,68,56,47,50,44,41,78,66,45,29.97,29.87,0,0,0,0.00
2013-11-1,70,56,50,49,44,42,75,65,42,29.94,29.82,0,0,0,0.00
2013-11-2,68,57,50,54,47,42,76,68,54,29.83,29.72,0,0,0,0.00
2013-11-3,62,53,47,45,40,30,78,64,31,29.85,29.76,0,0,0,0.00
2013-12-7,46,41,34,35,29,27,76,63,51,30.02,29.87,0,0,0,0.00
2013-12-8,42,36,32,29,26,22,79,68,52,30.10,29.99,0,0,0,0.00
2013-12-9,47,38,32,25,22,19,65,55,38,30.18,30.08,0,0,0,0.00
2013-12-10,49,40,33,32,28,24,72,63,49,30.17,29.99,0,0,0,0.00
2013-12-11,52,43,36,33,31,28,73,63,45,30.03,29.95,0,0,0,0.00
2013-12-12,55,44,37,37,33,30,74,66,47,30.05,29.95,0,0,0,0.00
2013-12-13,55,46,40,44,37,32,78,71,62,30.12,30.01,0,0,0,0.00
2013-12-14,57,47,41,42,37,34,78,68,52,30.18,30.08,0,0,0,0.00
2013-12-15,59,49,42,42,37,34,74,65,51,30.15,30.03,0,0,0,0.00
2013-12-16,64,53,46,42,37,34,62,55,42,30.03,29.92,0,0,0,0.00
2013-12-17,62,53,45,43,39,35,69,60,47,29.97,29.82,0,0,0,0.00
2013-12-18,59,51,47,48,42,37,77,71,63,29.82,29.58,0,0,0,0.00
2013-12-19,55,49,44,42,36,24,78,62,37,29.74,29.53,0,0,0,0.00
2013-12-20,57,48,41,28,24,13,49,40,19,29.81,29.72,0,0,0,0.00
2013-12-21,59,50,45,48,42,27,77,72,47,29.87,29.76,0,0,0,0.00
2013-12-22,63,53,46,45,40,37,77,63,43,30.08,29.87,0,0,0,0.00
2013-12-23,59,51,44,47,40,37,77,68,56,30.17,30.07,0,0,0,0.00
2013-12-24,66,54,47,47,41,36,72,62,45,30.13,30.00,0,0,0,0.00
2013-12-25,62,52,46,44,39,35,68,61,49,30.08,29.99,0,0,0,0.00
2013-12-26,62,52,46,44,40,37,72,63,49,30.05,29.96,0,0,0,0.00
2013-12-27,60,50,45,44,40,36,75,69,55,30.02,29.95,0,0,0,0.00
2013-12-28,59,52,50,38,34,32,52,50,46,29.88,29.83,0,0,0,0.00
2013-12-29,63,54,47,34,29,23,52,39,24,29.97,29.88,0,0,0,0.00
2013-12-30,56,47,43,37,33,30,63,58,48,30.05,29.96,0,0,0,0.00
2013-12-31,58,51,45,46,41,37,76,70,59,30.05,29.94,0,0,0,0.00
2014-1-1,61,50,42,48,40,35,78,67,56,30.00,29.92,0,0,0,0.00
2014-1-2,62,52,44,42,38,35,72,59,45,29.96,29.84,0,0,0,0.00